sensor_id;sensor_type;location;lat;lon;timestamp;P1;durP1;ratioP1;P2;durP2;ratioP2
74892;SDS011;63446;56.272;43.922;2022-09-27T00:00:34;16.17;;;7.20;;
74892;SDS011;63446;56.272;43.922;2022-09-27T00:03:02;13.55;;;7.20;;
74892;SDS011;63446;56.272;43.922;2022-09-27T00:05:28;14.18;;;6.90;;
74892;SDS011;63446;56.272;43.922;2022-09-27T00:07:54;18.03;;;6.63;;
74892;SDS011;63446;56.272;43.922;2022-09-27T00:10:20;12.20;;;6.80;;
74892;SDS011;63446;56.272;43.922;2022-09-27T00:12:47;13.38;;;7.35;;
74892;SDS011;63446;56.272;43.922;2022-09-27T00:15:12;15.10;;;6.47;;
74892;SDS011;63446;56.272;43.922;2022-09-27T00:17:39;13.63;;;6.07;;
74892;SDS011;63446;56.272;43.922;2022-09-27T00:20:05;14.65;;;6.70;;
74892;SDS011;63446;56.272;43.922;2022-09-27T00:22:33;14.38;;;6.97;;
74892;SDS011;63446;56.272;43.922;2022-09-27T00:24:58;13.23;;;6.20;;
74892;SDS011;63446;56.272;43.922;2022-09-27T00:27:24;16.67;;;7.00;;
74892;SDS011;63446;56.272;43.922;2022-09-27T00:29:51;13.23;;;6.50;;
74892;SDS011;63446;56.272;43.922;2022-09-27T00:32:18;14.63;;;6.73;;
74892;SDS011;63446;56.272;43.922;2022-09-27T00:34:44;16.17;;;6.65;;
74892;SDS011;63446;56.272;43.922;2022-09-27T00:37:10;13.65;;;7.22;;
74892;SDS011;63446;56.272;43.922;2022-09-27T00:39:36;16.63;;;7.20;;
74892;SDS011;63446;56.272;43.922;2022-09-27T00:42:09;15.20;;;7.22;;
74892;SDS011;63446;56.272;43.922;2022-09-27T00:47:09;18.05;;;7.20;;
74892;SDS011;63446;56.272;43.922;2022-09-27T00:49:39;16.65;;;7.15;;
74892;SDS011;63446;56.272;43.922;2022-09-27T00:52:24;15.00;;;7.23;;
74892;SDS011;63446;56.272;43.922;2022-09-27T00:54:53;14.57;;;7.05;;
74892;SDS011;63446;56.272;43.922;2022-09-27T00:57:32;16.00;;;7.68;;
74892;SDS011;63446;56.272;43.922;2022-09-27T01:00:00;20.23;;;8.18;;
74892;SDS011;63446;56.272;43.922;2022-09-27T01:02:29;18.50;;;7.72;;
74892;SDS011;63446;56.272;43.922;2022-09-27T01:04:57;19.55;;;8.35;;
74892;SDS011;63446;56.272;43.922;2022-09-27T01:07:24;17.08;;;7.70;;
74892;SDS011;63446;56.272;43.922;2022-09-27T01:09:49;19.83;;;7.43;;
74892;SDS011;63446;56.272;43.922;2022-09-27T01:12:24;17.45;;;7.22;;
74892;SDS011;63446;56.272;43.922;2022-09-27T01:33:52;15.68;;;6.68;;
74892;SDS011;63446;56.272;43.922;2022-09-27T01:44:54;15.18;;;6.47;;
74892;SDS011;63446;56.272;43.922;2022-09-27T01:47:36;14.65;;;6.60;;
74892;SDS011;63446;56.272;43.922;2022-09-27T01:56:18;14.73;;;7.43;;
74892;SDS011;63446;56.272;43.922;2022-09-27T02:01:46;13.73;;;6.22;;
74892;SDS011;63446;56.272;43.922;2022-09-27T02:04:16;16.77;;;6.75;;
74892;SDS011;63446;56.272;43.922;2022-09-27T02:07:22;13.80;;;6.50;;
74892;SDS011;63446;56.272;43.922;2022-09-27T02:09:55;12.50;;;6.70;;
74892;SDS011;63446;56.272;43.922;2022-09-27T02:12:53;13.85;;;6.50;;
74892;SDS011;63446;56.272;43.922;2022-09-27T02:15:23;14.68;;;6.95;;
74892;SDS011;63446;56.272;43.922;2022-09-27T02:18:12;13.82;;;6.47;;
74892;SDS011;63446;56.272;43.922;2022-09-27T02:20:45;13.52;;;6.45;;
74892;SDS011;63446;56.272;43.922;2022-09-27T02:23:25;13.88;;;6.60;;
74892;SDS011;63446;56.272;43.922;2022-09-27T02:26:13;13.40;;;6.28;;
74892;SDS011;63446;56.272;43.922;2022-09-27T02:28:48;16.02;;;6.82;;
74892;SDS011;63446;56.272;43.922;2022-09-27T02:31:23;18.52;;;7.28;;
74892;SDS011;63446;56.272;43.922;2022-09-27T02:33:52;14.52;;;6.95;;
74892;SDS011;63446;56.272;43.922;2022-09-27T02:36:32;15.98;;;6.97;;
74892;SDS011;63446;56.272;43.922;2022-09-27T02:38:58;13.68;;;6.57;;
74892;SDS011;63446;56.272;43.922;2022-09-27T02:41:26;15.57;;;7.13;;
74892;SDS011;63446;56.272;43.922;2022-09-27T02:43:53;16.45;;;7.20;;
74892;SDS011;63446;56.272;43.922;2022-09-27T03:00:47;13.10;;;6.15;;
74892;SDS011;63446;56.272;43.922;2022-09-27T03:06:15;15.55;;;6.28;;
74892;SDS011;63446;56.272;43.922;2022-09-27T03:08:44;14.10;;;6.40;;
74892;SDS011;63446;56.272;43.922;2022-09-27T03:11:10;16.85;;;6.93;;
74892;SDS011;63446;56.272;43.922;2022-09-27T03:13:36;15.73;;;6.90;;
74892;SDS011;63446;56.272;43.922;2022-09-27T03:16:05;15.95;;;7.05;;
74892;SDS011;63446;56.272;43.922;2022-09-27T03:19:09;17.33;;;6.82;;
74892;SDS011;63446;56.272;43.922;2022-09-27T03:22:02;13.20;;;6.00;;
74892;SDS011;63446;56.272;43.922;2022-09-27T03:24:29;13.30;;;6.90;;
74892;SDS011;63446;56.272;43.922;2022-09-27T03:26:55;13.55;;;6.25;;
74892;SDS011;63446;56.272;43.922;2022-09-27T03:29:20;14.03;;;5.83;;
74892;SDS011;63446;56.272;43.922;2022-09-27T03:31:51;15.05;;;6.22;;
74892;SDS011;63446;56.272;43.922;2022-09-27T03:34:35;13.95;;;6.45;;
74892;SDS011;63446;56.272;43.922;2022-09-27T03:37:00;12.33;;;6.17;;
74892;SDS011;63446;56.272;43.922;2022-09-27T03:39:26;16.20;;;6.43;;
74892;SDS011;63446;56.272;43.922;2022-09-27T03:41:53;14.75;;;6.45;;
74892;SDS011;63446;56.272;43.922;2022-09-27T03:44:19;12.33;;;6.10;;
74892;SDS011;63446;56.272;43.922;2022-09-27T03:46:45;14.38;;;6.68;;
74892;SDS011;63446;56.272;43.922;2022-09-27T03:49:11;12.95;;;6.10;;
74892;SDS011;63446;56.272;43.922;2022-09-27T03:51:37;13.38;;;5.57;;
74892;SDS011;63446;56.272;43.922;2022-09-27T03:54:03;12.43;;;6.05;;
74892;SDS011;63446;56.272;43.922;2022-09-27T03:56:30;14.00;;;5.57;;
74892;SDS011;63446;56.272;43.922;2022-09-27T03:58:55;11.90;;;5.93;;
74892;SDS011;63446;56.272;43.922;2022-09-27T04:01:22;13.25;;;5.82;;
74892;SDS011;63446;56.272;43.922;2022-09-27T04:03:52;13.88;;;5.65;;
74892;SDS011;63446;56.272;43.922;2022-09-27T04:06:27;11.05;;;5.28;;
74892;SDS011;63446;56.272;43.922;2022-09-27T04:08:54;14.80;;;5.60;;
74892;SDS011;63446;56.272;43.922;2022-09-27T04:11:23;13.30;;;5.68;;
74892;SDS011;63446;56.272;43.922;2022-09-27T04:13:49;12.13;;;5.45;;
74892;SDS011;63446;56.272;43.922;2022-09-27T04:16:17;12.02;;;5.28;;
74892;SDS011;63446;56.272;43.922;2022-09-27T04:19:09;10.70;;;4.93;;
74892;SDS011;63446;56.272;43.922;2022-09-27T04:21:36;11.50;;;5.00;;
74892;SDS011;63446;56.272;43.922;2022-09-27T04:24:02;12.55;;;4.85;;
74892;SDS011;63446;56.272;43.922;2022-09-27T04:26:30;10.75;;;5.25;;
74892;SDS011;63446;56.272;43.922;2022-09-27T04:29:01;9.85;;;5.47;;
74892;SDS011;63446;56.272;43.922;2022-09-27T04:31:28;11.60;;;5.40;;
74892;SDS011;63446;56.272;43.922;2022-09-27T04:34:14;11.83;;;6.00;;
74892;SDS011;63446;56.272;43.922;2022-09-27T04:36:40;11.65;;;5.13;;
74892;SDS011;63446;56.272;43.922;2022-09-27T04:39:14;13.52;;;5.80;;
74892;SDS011;63446;56.272;43.922;2022-09-27T04:41:44;12.05;;;5.32;;
74892;SDS011;63446;56.272;43.922;2022-09-27T04:44:10;10.55;;;5.10;;
74892;SDS011;63446;56.272;43.922;2022-09-27T04:46:39;13.27;;;5.30;;
74892;SDS011;63446;56.272;43.922;2022-09-27T04:49:04;12.27;;;5.82;;
74892;SDS011;63446;56.272;43.922;2022-09-27T04:51:33;15.52;;;5.75;;
74892;SDS011;63446;56.272;43.922;2022-09-27T04:53:58;16.03;;;6.30;;
74892;SDS011;63446;56.272;43.922;2022-09-27T04:56:28;11.68;;;5.68;;
74892;SDS011;63446;56.272;43.922;2022-09-27T04:58:53;13.83;;;6.17;;
74892;SDS011;63446;56.272;43.922;2022-09-27T05:01:19;13.20;;;6.35;;
74892;SDS011;63446;56.272;43.922;2022-09-27T05:03:57;12.55;;;6.10;;
74892;SDS011;63446;56.272;43.922;2022-09-27T05:06:24;15.57;;;6.53;;
74892;SDS011;63446;56.272;43.922;2022-09-27T05:08:53;13.27;;;6.23;;
74892;SDS011;63446;56.272;43.922;2022-09-27T05:11:26;9.70;;;4.88;;
74892;SDS011;63446;56.272;43.922;2022-09-27T05:14:24;12.05;;;5.18;;
74892;SDS011;63446;56.272;43.922;2022-09-27T05:17:06;13.75;;;5.50;;
74892;SDS011;63446;56.272;43.922;2022-09-27T05:19:32;9.70;;;4.40;;
74892;SDS011;63446;56.272;43.922;2022-09-27T05:21:58;12.02;;;5.18;;
74892;SDS011;63446;56.272;43.922;2022-09-27T05:24:25;11.20;;;5.03;;
74892;SDS011;63446;56.272;43.922;2022-09-27T05:26:53;11.27;;;4.82;;
74892;SDS011;63446;56.272;43.922;2022-09-27T05:29:19;12.25;;;5.20;;
74892;SDS011;63446;56.272;43.922;2022-09-27T05:31:57;11.97;;;5.80;;
74892;SDS011;63446;56.272;43.922;2022-09-27T05:34:23;9.48;;;4.97;;
74892;SDS011;63446;56.272;43.922;2022-09-27T05:36:57;9.65;;;4.97;;
74892;SDS011;63446;56.272;43.922;2022-09-27T05:39:24;11.17;;;5.10;;
74892;SDS011;63446;56.272;43.922;2022-09-27T05:41:50;14.25;;;5.75;;
74892;SDS011;63446;56.272;43.922;2022-09-27T05:44:16;12.32;;;5.80;;
74892;SDS011;63446;56.272;43.922;2022-09-27T05:46:51;12.00;;;5.45;;
74892;SDS011;63446;56.272;43.922;2022-09-27T05:49:17;14.20;;;5.37;;
74892;SDS011;63446;56.272;43.922;2022-09-27T05:51:45;13.63;;;5.65;;
74892;SDS011;63446;56.272;43.922;2022-09-27T05:54:11;12.38;;;5.28;;
74892;SDS011;63446;56.272;43.922;2022-09-27T05:56:37;11.70;;;5.77;;
74892;SDS011;63446;56.272;43.922;2022-09-27T05:59:20;12.50;;;5.82;;
74892;SDS011;63446;56.272;43.922;2022-09-27T06:02:08;18.92;;;6.63;;
74892;SDS011;63446;56.272;43.922;2022-09-27T06:04:54;15.10;;;5.82;;
74892;SDS011;63446;56.272;43.922;2022-09-27T06:07:40;13.75;;;5.55;;
74892;SDS011;63446;56.272;43.922;2022-09-27T06:10:11;15.45;;;5.75;;
74892;SDS011;63446;56.272;43.922;2022-09-27T06:12:38;18.20;;;6.50;;
74892;SDS011;63446;56.272;43.922;2022-09-27T06:15:11;18.02;;;6.45;;
74892;SDS011;63446;56.272;43.922;2022-09-27T06:17:41;14.88;;;5.57;;
74892;SDS011;63446;56.272;43.922;2022-09-27T06:20:14;16.48;;;6.13;;
74892;SDS011;63446;56.272;43.922;2022-09-27T06:22:41;18.92;;;6.70;;
74892;SDS011;63446;56.272;43.922;2022-09-27T06:25:07;14.82;;;6.28;;
74892;SDS011;63446;56.272;43.922;2022-09-27T06:27:45;12.73;;;5.75;;
74892;SDS011;63446;56.272;43.922;2022-09-27T06:30:20;17.75;;;5.63;;
74892;SDS011;63446;56.272;43.922;2022-09-27T06:33:00;12.48;;;5.38;;
74892;SDS011;63446;56.272;43.922;2022-09-27T06:35:33;12.98;;;5.40;;
74892;SDS011;63446;56.272;43.922;2022-09-27T06:38:02;12.55;;;5.22;;
74892;SDS011;63446;56.272;43.922;2022-09-27T06:40:29;15.35;;;6.20;;
74892;SDS011;63446;56.272;43.922;2022-09-27T06:43:27;16.85;;;6.40;;
74892;SDS011;63446;56.272;43.922;2022-09-27T06:46:13;13.43;;;5.95;;
74892;SDS011;63446;56.272;43.922;2022-09-27T06:49:08;12.95;;;6.75;;
74892;SDS011;63446;56.272;43.922;2022-09-27T06:51:34;14.52;;;5.80;;
74892;SDS011;63446;56.272;43.922;2022-09-27T06:54:00;18.10;;;5.73;;
74892;SDS011;63446;56.272;43.922;2022-09-27T06:56:26;13.40;;;6.30;;
74892;SDS011;63446;56.272;43.922;2022-09-27T06:58:52;16.80;;;5.90;;
74892;SDS011;63446;56.272;43.922;2022-09-27T07:01:43;15.35;;;5.85;;
74892;SDS011;63446;56.272;43.922;2022-09-27T07:04:28;15.75;;;5.40;;
74892;SDS011;63446;56.272;43.922;2022-09-27T07:07:12;14.60;;;6.32;;
74892;SDS011;63446;56.272;43.922;2022-09-27T07:09:46;14.98;;;6.13;;
74892;SDS011;63446;56.272;43.922;2022-09-27T07:12:13;14.43;;;6.43;;
74892;SDS011;63446;56.272;43.922;2022-09-27T07:14:39;12.05;;;5.43;;
74892;SDS011;63446;56.272;43.922;2022-09-27T07:17:09;10.40;;;5.45;;
74892;SDS011;63446;56.272;43.922;2022-09-27T07:19:39;10.77;;;4.93;;
74892;SDS011;63446;56.272;43.922;2022-09-27T07:22:06;9.65;;;4.82;;
74892;SDS011;63446;56.272;43.922;2022-09-27T07:24:32;15.73;;;5.20;;
74892;SDS011;63446;56.272;43.922;2022-09-27T07:26:58;9.45;;;4.40;;
74892;SDS011;63446;56.272;43.922;2022-09-27T07:29:25;7.88;;;4.07;;
74892;SDS011;63446;56.272;43.922;2022-09-27T07:31:52;9.38;;;4.32;;
74892;SDS011;63446;56.272;43.922;2022-09-27T07:34:17;11.43;;;4.47;;
74892;SDS011;63446;56.272;43.922;2022-09-27T07:36:44;9.18;;;4.53;;
74892;SDS011;63446;56.272;43.922;2022-09-27T07:39:11;9.48;;;4.78;;
74892;SDS011;63446;56.272;43.922;2022-09-27T07:41:37;10.98;;;4.47;;
74892;SDS011;63446;56.272;43.922;2022-09-27T07:44:04;10.00;;;4.75;;
74892;SDS011;63446;56.272;43.922;2022-09-27T07:46:37;8.65;;;4.80;;
74892;SDS011;63446;56.272;43.922;2022-09-27T07:49:16;13.75;;;4.60;;
74892;SDS011;63446;56.272;43.922;2022-09-27T07:51:58;12.75;;;4.43;;
74892;SDS011;63446;56.272;43.922;2022-09-27T07:54:33;7.53;;;4.22;;
74892;SDS011;63446;56.272;43.922;2022-09-27T07:57:25;8.98;;;4.28;;
74892;SDS011;63446;56.272;43.922;2022-09-27T07:59:52;11.63;;;4.65;;
74892;SDS011;63446;56.272;43.922;2022-09-27T08:02:22;8.93;;;4.82;;
74892;SDS011;63446;56.272;43.922;2022-09-27T08:04:50;10.60;;;4.20;;
74892;SDS011;63446;56.272;43.922;2022-09-27T08:07:17;9.73;;;4.20;;
74892;SDS011;63446;56.272;43.922;2022-09-27T08:09:46;12.05;;;5.05;;
74892;SDS011;63446;56.272;43.922;2022-09-27T08:12:12;8.35;;;4.10;;
74892;SDS011;63446;56.272;43.922;2022-09-27T08:14:38;8.68;;;4.38;;
74892;SDS011;63446;56.272;43.922;2022-09-27T08:17:08;8.63;;;4.13;;
74892;SDS011;63446;56.272;43.922;2022-09-27T08:20:05;7.57;;;3.85;;
74892;SDS011;63446;56.272;43.922;2022-09-27T08:22:50;10.63;;;4.32;;
74892;SDS011;63446;56.272;43.922;2022-09-27T08:25:26;9.55;;;4.20;;
74892;SDS011;63446;56.272;43.922;2022-09-27T08:28:06;10.65;;;4.53;;
74892;SDS011;63446;56.272;43.922;2022-09-27T08:30:41;7.23;;;3.93;;
74892;SDS011;63446;56.272;43.922;2022-09-27T08:33:07;8.68;;;4.40;;
74892;SDS011;63446;56.272;43.922;2022-09-27T08:35:34;10.23;;;4.10;;
74892;SDS011;63446;56.272;43.922;2022-09-27T08:38:02;6.50;;;3.83;;
74892;SDS011;63446;56.272;43.922;2022-09-27T08:41:20;8.40;;;3.95;;
74892;SDS011;63446;56.272;43.922;2022-09-27T08:49:04;11.73;;;4.13;;
74892;SDS011;63446;56.272;43.922;2022-09-27T08:51:50;9.20;;;3.90;;
74892;SDS011;63446;56.272;43.922;2022-09-27T08:54:24;8.30;;;4.03;;
74892;SDS011;63446;56.272;43.922;2022-09-27T08:57:02;8.20;;;3.97;;
74892;SDS011;63446;56.272;43.922;2022-09-27T08:59:34;8.57;;;4.28;;
74892;SDS011;63446;56.272;43.922;2022-09-27T09:02:05;7.90;;;4.10;;
74892;SDS011;63446;56.272;43.922;2022-09-27T09:04:44;7.27;;;3.70;;
74892;SDS011;63446;56.272;43.922;2022-09-27T09:13:30;7.90;;;3.90;;
74892;SDS011;63446;56.272;43.922;2022-09-27T09:18:41;7.60;;;4.00;;
74892;SDS011;63446;56.272;43.922;2022-09-27T09:24:14;8.00;;;3.92;;
74892;SDS011;63446;56.272;43.922;2022-09-27T09:27:01;7.03;;;3.90;;
74892;SDS011;63446;56.272;43.922;2022-09-27T09:35:13;8.13;;;4.30;;
74892;SDS011;63446;56.272;43.922;2022-09-27T09:37:46;10.05;;;4.38;;
74892;SDS011;63446;56.272;43.922;2022-09-27T09:40:25;11.02;;;4.38;;
74892;SDS011;63446;56.272;43.922;2022-09-27T09:45:32;10.20;;;4.63;;
74892;SDS011;63446;56.272;43.922;2022-09-27T09:48:04;11.18;;;4.50;;
74892;SDS011;63446;56.272;43.922;2022-09-27T09:50:44;16.70;;;4.43;;
74892;SDS011;63446;56.272;43.922;2022-09-27T09:56:07;10.43;;;4.55;;
74892;SDS011;63446;56.272;43.922;2022-09-27T10:01:33;12.20;;;4.93;;
74892;SDS011;63446;56.272;43.922;2022-09-27T10:04:03;9.52;;;4.95;;
74892;SDS011;63446;56.272;43.922;2022-09-27T10:06:30;10.55;;;5.10;;
74892;SDS011;63446;56.272;43.922;2022-09-27T10:08:58;8.75;;;5.40;;
74892;SDS011;63446;56.272;43.922;2022-09-27T10:11:41;9.80;;;5.07;;
74892;SDS011;63446;56.272;43.922;2022-09-27T10:14:15;9.32;;;4.78;;
74892;SDS011;63446;56.272;43.922;2022-09-27T10:16:44;11.40;;;4.88;;
74892;SDS011;63446;56.272;43.922;2022-09-27T10:19:18;9.40;;;4.93;;
74892;SDS011;63446;56.272;43.922;2022-09-27T10:21:53;8.90;;;4.88;;
74892;SDS011;63446;56.272;43.922;2022-09-27T10:24:25;10.40;;;5.90;;
74892;SDS011;63446;56.272;43.922;2022-09-27T10:27:04;12.43;;;5.55;;
74892;SDS011;63446;56.272;43.922;2022-09-27T10:29:33;9.77;;;5.40;;
74892;SDS011;63446;56.272;43.922;2022-09-27T10:32:03;11.48;;;5.80;;
74892;SDS011;63446;56.272;43.922;2022-09-27T10:34:41;11.25;;;5.05;;
74892;SDS011;63446;56.272;43.922;2022-09-27T10:39:40;10.13;;;5.07;;
74892;SDS011;63446;56.272;43.922;2022-09-27T10:42:29;11.80;;;5.22;;
74892;SDS011;63446;56.272;43.922;2022-09-27T10:45:19;9.85;;;5.53;;
74892;SDS011;63446;56.272;43.922;2022-09-27T10:47:52;10.52;;;4.82;;
74892;SDS011;63446;56.272;43.922;2022-09-27T10:50:25;9.50;;;4.83;;
74892;SDS011;63446;56.272;43.922;2022-09-27T10:53:14;12.70;;;5.43;;
74892;SDS011;63446;56.272;43.922;2022-09-27T10:55:49;11.05;;;5.70;;
74892;SDS011;63446;56.272;43.922;2022-09-27T10:58:23;11.68;;;5.40;;
74892;SDS011;63446;56.272;43.922;2022-09-27T11:00:59;10.52;;;5.75;;
74892;SDS011;63446;56.272;43.922;2022-09-27T11:03:30;9.60;;;5.30;;
74892;SDS011;63446;56.272;43.922;2022-09-27T11:06:11;13.00;;;5.32;;
74892;SDS011;63446;56.272;43.922;2022-09-27T11:08:55;9.73;;;4.55;;
74892;SDS011;63446;56.272;43.922;2022-09-27T11:11:40;7.10;;;4.00;;
74892;SDS011;63446;56.272;43.922;2022-09-27T11:14:16;8.33;;;3.90;;
74892;SDS011;63446;56.272;43.922;2022-09-27T11:23:05;8.93;;;3.70;;
74892;SDS011;63446;56.272;43.922;2022-09-27T11:26:03;11.57;;;4.40;;
74892;SDS011;63446;56.272;43.922;2022-09-27T11:31:29;7.82;;;4.20;;
74892;SDS011;63446;56.272;43.922;2022-09-27T11:41:54;8.13;;;4.15;;
74892;SDS011;63446;56.272;43.922;2022-09-27T12:06:00;12.40;;;5.87;;
74892;SDS011;63446;56.272;43.922;2022-09-27T12:11:21;9.43;;;5.00;;
74892;SDS011;63446;56.272;43.922;2022-09-27T12:13:56;8.63;;;4.50;;
74892;SDS011;63446;56.272;43.922;2022-09-27T12:16:26;6.03;;;3.15;;
74892;SDS011;63446;56.272;43.922;2022-09-27T12:18:55;8.63;;;3.60;;
74892;SDS011;63446;56.272;43.922;2022-09-27T12:21:45;7.88;;;2.90;;
74892;SDS011;63446;56.272;43.922;2022-09-27T12:24:14;9.40;;;3.00;;
74892;SDS011;63446;56.272;43.922;2022-09-27T12:27:00;6.38;;;2.60;;
74892;SDS011;63446;56.272;43.922;2022-09-27T12:29:33;9.75;;;2.90;;
74892;SDS011;63446;56.272;43.922;2022-09-27T12:32:26;6.77;;;3.30;;
74892;SDS011;63446;56.272;43.922;2022-09-27T12:34:58;7.50;;;3.25;;
74892;SDS011;63446;56.272;43.922;2022-09-27T12:38:11;7.82;;;2.70;;
74892;SDS011;63446;56.272;43.922;2022-09-27T12:40:37;6.70;;;3.03;;
74892;SDS011;63446;56.272;43.922;2022-09-27T12:51:24;6.22;;;2.33;;
74892;SDS011;63446;56.272;43.922;2022-09-27T12:59:26;7.73;;;2.63;;
74892;SDS011;63446;56.272;43.922;2022-09-27T13:08:05;9.88;;;3.13;;
74892;SDS011;63446;56.272;43.922;2022-09-27T13:13:55;6.90;;;2.70;;
74892;SDS011;63446;56.272;43.922;2022-09-27T13:16:24;7.28;;;2.70;;
74892;SDS011;63446;56.272;43.922;2022-09-27T13:29:49;7.32;;;2.90;;
74892;SDS011;63446;56.272;43.922;2022-09-27T13:32:22;6.85;;;3.15;;
74892;SDS011;63446;56.272;43.922;2022-09-27T13:35:11;6.70;;;2.95;;
74892;SDS011;63446;56.272;43.922;2022-09-27T13:38:22;4.88;;;2.65;;
74892;SDS011;63446;56.272;43.922;2022-09-27T13:40:51;7.67;;;3.30;;
74892;SDS011;63446;56.272;43.922;2022-09-27T13:46:27;8.98;;;2.90;;
74892;SDS011;63446;56.272;43.922;2022-09-27T13:49:12;10.77;;;3.40;;
74892;SDS011;63446;56.272;43.922;2022-09-27T13:52:19;10.60;;;3.30;;
74892;SDS011;63446;56.272;43.922;2022-09-27T13:55:41;7.97;;;2.87;;
74892;SDS011;63446;56.272;43.922;2022-09-27T14:01:48;8.00;;;3.22;;
74892;SDS011;63446;56.272;43.922;2022-09-27T14:04:25;11.88;;;5.00;;
74892;SDS011;63446;56.272;43.922;2022-09-27T14:06:57;9.88;;;3.78;;
74892;SDS011;63446;56.272;43.922;2022-09-27T14:09:28;7.27;;;3.37;;
74892;SDS011;63446;56.272;43.922;2022-09-27T14:12:17;7.20;;;3.08;;
74892;SDS011;63446;56.272;43.922;2022-09-27T14:14:48;9.73;;;3.85;;
74892;SDS011;63446;56.272;43.922;2022-09-27T14:17:15;10.57;;;3.83;;
74892;SDS011;63446;56.272;43.922;2022-09-27T14:19:43;11.07;;;4.45;;
74892;SDS011;63446;56.272;43.922;2022-09-27T14:22:14;12.60;;;6.03;;
74892;SDS011;63446;56.272;43.922;2022-09-27T14:24:58;12.65;;;6.20;;
74892;SDS011;63446;56.272;43.922;2022-09-27T14:27:35;8.30;;;4.57;;
74892;SDS011;63446;56.272;43.922;2022-09-27T14:30:22;12.18;;;5.10;;
74892;SDS011;63446;56.272;43.922;2022-09-27T14:33:27;11.68;;;6.55;;
74892;SDS011;63446;56.272;43.922;2022-09-27T14:35:55;19.90;;;11.00;;
74892;SDS011;63446;56.272;43.922;2022-09-27T14:38:40;14.25;;;7.53;;
74892;SDS011;63446;56.272;43.922;2022-09-27T14:41:33;12.52;;;6.70;;
74892;SDS011;63446;56.272;43.922;2022-09-27T14:44:00;11.80;;;6.18;;
74892;SDS011;63446;56.272;43.922;2022-09-27T14:46:27;10.37;;;5.40;;
74892;SDS011;63446;56.272;43.922;2022-09-27T14:48:57;14.40;;;5.50;;
74892;SDS011;63446;56.272;43.922;2022-09-27T14:51:38;18.00;;;5.90;;
74892;SDS011;63446;56.272;43.922;2022-09-27T14:54:04;13.18;;;5.82;;
74892;SDS011;63446;56.272;43.922;2022-09-27T14:56:35;12.60;;;5.80;;
74892;SDS011;63446;56.272;43.922;2022-09-27T14:59:03;11.00;;;5.47;;
74892;SDS011;63446;56.272;43.922;2022-09-27T15:01:35;15.80;;;5.47;;
74892;SDS011;63446;56.272;43.922;2022-09-27T15:04:05;11.90;;;5.50;;
74892;SDS011;63446;56.272;43.922;2022-09-27T15:06:37;15.10;;;5.75;;
74892;SDS011;63446;56.272;43.922;2022-09-27T15:09:04;14.40;;;4.67;;
74892;SDS011;63446;56.272;43.922;2022-09-27T15:11:31;9.60;;;4.35;;
74892;SDS011;63446;56.272;43.922;2022-09-27T15:13:59;8.65;;;4.20;;
74892;SDS011;63446;56.272;43.922;2022-09-27T15:16:27;10.02;;;3.83;;
74892;SDS011;63446;56.272;43.922;2022-09-27T15:18:59;9.63;;;3.97;;
74892;SDS011;63446;56.272;43.922;2022-09-27T15:21:38;7.93;;;4.20;;
74892;SDS011;63446;56.272;43.922;2022-09-27T15:24:04;8.20;;;3.85;;
74892;SDS011;63446;56.272;43.922;2022-09-27T15:26:38;8.75;;;3.92;;
74892;SDS011;63446;56.272;43.922;2022-09-27T15:29:21;10.23;;;3.92;;
74892;SDS011;63446;56.272;43.922;2022-09-27T15:31:58;11.20;;;4.05;;
74892;SDS011;63446;56.272;43.922;2022-09-27T15:34:28;9.15;;;3.35;;
74892;SDS011;63446;56.272;43.922;2022-09-27T15:36:57;10.07;;;3.60;;
74892;SDS011;63446;56.272;43.922;2022-09-27T15:39:31;6.22;;;2.95;;
74892;SDS011;63446;56.272;43.922;2022-09-27T15:42:01;8.63;;;3.08;;
74892;SDS011;63446;56.272;43.922;2022-09-27T15:44:48;11.18;;;4.00;;
74892;SDS011;63446;56.272;43.922;2022-09-27T15:50:30;8.73;;;3.05;;
74892;SDS011;63446;56.272;43.922;2022-09-27T15:52:57;7.18;;;3.10;;
74892;SDS011;63446;56.272;43.922;2022-09-27T15:55:23;6.53;;;3.03;;
74892;SDS011;63446;56.272;43.922;2022-09-27T15:58:33;8.27;;;4.10;;
74892;SDS011;63446;56.272;43.922;2022-09-27T16:00:51;6.43;;;2.92;;
74892;SDS011;63446;56.272;43.922;2022-09-27T16:03:18;6.95;;;3.10;;
74892;SDS011;63446;56.272;43.922;2022-09-27T16:05:45;7.15;;;2.97;;
74892;SDS011;63446;56.272;43.922;2022-09-27T16:08:11;7.63;;;3.38;;
74892;SDS011;63446;56.272;43.922;2022-09-27T16:10:37;7.25;;;3.85;;
74892;SDS011;63446;56.272;43.922;2022-09-27T16:13:05;8.07;;;3.87;;
74892;SDS011;63446;56.272;43.922;2022-09-27T16:15:33;9.57;;;4.03;;
74892;SDS011;63446;56.272;43.922;2022-09-27T16:18:00;7.63;;;3.80;;
74892;SDS011;63446;56.272;43.922;2022-09-27T16:20:26;8.53;;;4.53;;
74892;SDS011;63446;56.272;43.922;2022-09-27T16:22:53;12.90;;;4.07;;
74892;SDS011;63446;56.272;43.922;2022-09-27T16:25:19;10.50;;;4.57;;
74892;SDS011;63446;56.272;43.922;2022-09-27T16:27:46;10.73;;;4.43;;
74892;SDS011;63446;56.272;43.922;2022-09-27T16:30:12;9.43;;;4.22;;
74892;SDS011;63446;56.272;43.922;2022-09-27T16:32:42;10.80;;;4.63;;
74892;SDS011;63446;56.272;43.922;2022-09-27T16:35:10;8.65;;;4.30;;
74892;SDS011;63446;56.272;43.922;2022-09-27T16:37:36;9.00;;;4.68;;
74892;SDS011;63446;56.272;43.922;2022-09-27T16:40:04;9.40;;;4.75;;
74892;SDS011;63446;56.272;43.922;2022-09-27T16:42:31;10.60;;;4.07;;
74892;SDS011;63446;56.272;43.922;2022-09-27T16:44:57;11.13;;;4.73;;
74892;SDS011;63446;56.272;43.922;2022-09-27T16:47:22;10.48;;;4.75;;
74892;SDS011;63446;56.272;43.922;2022-09-27T16:49:49;11.03;;;4.50;;
74892;SDS011;63446;56.272;43.922;2022-09-27T16:52:34;8.80;;;4.35;;
74892;SDS011;63446;56.272;43.922;2022-09-27T16:54:59;8.32;;;4.20;;
74892;SDS011;63446;56.272;43.922;2022-09-27T16:57:26;12.10;;;3.80;;
74892;SDS011;63446;56.272;43.922;2022-09-27T16:59:54;10.73;;;4.20;;
74892;SDS011;63446;56.272;43.922;2022-09-27T17:02:22;10.68;;;4.45;;
74892;SDS011;63446;56.272;43.922;2022-09-27T17:04:49;9.23;;;4.03;;
74892;SDS011;63446;56.272;43.922;2022-09-27T17:07:16;9.65;;;4.40;;
74892;SDS011;63446;56.272;43.922;2022-09-27T17:09:43;8.10;;;3.70;;
74892;SDS011;63446;56.272;43.922;2022-09-27T17:12:09;10.00;;;4.20;;
74892;SDS011;63446;56.272;43.922;2022-09-27T17:14:36;11.82;;;4.63;;
74892;SDS011;63446;56.272;43.922;2022-09-27T17:17:01;11.80;;;4.95;;
74892;SDS011;63446;56.272;43.922;2022-09-27T17:19:27;9.83;;;4.33;;
74892;SDS011;63446;56.272;43.922;2022-09-27T17:21:53;9.65;;;4.15;;
74892;SDS011;63446;56.272;43.922;2022-09-27T17:24:21;9.32;;;4.20;;
74892;SDS011;63446;56.272;43.922;2022-09-27T17:26:48;8.57;;;3.60;;
74892;SDS011;63446;56.272;43.922;2022-09-27T17:29:13;8.93;;;3.78;;
74892;SDS011;63446;56.272;43.922;2022-09-27T17:31:40;9.68;;;3.63;;
74892;SDS011;63446;56.272;43.922;2022-09-27T17:34:06;8.90;;;3.43;;
74892;SDS011;63446;56.272;43.922;2022-09-27T17:36:38;8.85;;;3.20;;
74892;SDS011;63446;56.272;43.922;2022-09-27T17:39:07;6.63;;;2.80;;
74892;SDS011;63446;56.272;43.922;2022-09-27T17:41:37;7.47;;;3.00;;
74892;SDS011;63446;56.272;43.922;2022-09-27T17:44:03;11.20;;;2.80;;
74892;SDS011;63446;56.272;43.922;2022-09-27T17:46:30;8.50;;;3.40;;
74892;SDS011;63446;56.272;43.922;2022-09-27T17:48:57;7.93;;;3.05;;
74892;SDS011;63446;56.272;43.922;2022-09-27T17:51:45;6.25;;;2.83;;
74892;SDS011;63446;56.272;43.922;2022-09-27T17:54:13;5.78;;;2.75;;